createdAt,value
2019-04-09T00:02:03.109Z,6.20
2019-04-09T00:04:31.529Z,6.20
2019-04-09T00:06:59.544Z,6.40
2019-04-09T00:09:28.021Z,6.50
2019-04-09T00:11:59.105Z,6.30
2019-04-09T00:14:26.619Z,6.10
2019-04-09T00:16:56.128Z,6.10
2019-04-09T00:19:25.230Z,6.10
2019-04-09T00:21:54.182Z,5.80
2019-04-09T00:24:23.097Z,5.90
2019-04-09T00:26:55.568Z,5.90
2019-04-09T00:29:22.748Z,5.80
2019-04-09T00:31:52.327Z,5.70
2019-04-09T00:34:21.870Z,5.60
2019-04-09T00:36:50.637Z,5.80
2019-04-09T00:39:19.181Z,5.80
2019-04-09T00:41:48.449Z,5.80
2019-04-09T00:44:17.176Z,5.80
2019-04-09T00:46:47.601Z,5.90
2019-04-09T00:49:16.995Z,5.70
2019-04-09T00:51:45.659Z,5.90
2019-04-09T00:54:14.904Z,6.00
2019-04-09T00:56:54.969Z,6.00
2019-04-09T00:59:13.767Z,5.90
2019-04-09T01:01:42.213Z,5.80
2019-04-09T01:04:11.246Z,5.80
2019-04-09T01:06:41.325Z,5.60
2019-04-09T01:09:12.435Z,5.50
2019-04-09T01:11:41.615Z,5.50
2019-04-09T01:14:10.045Z,5.70
2019-04-09T01:16:40.570Z,5.90
2019-04-09T01:19:16.298Z,5.90
2019-04-09T01:21:39.285Z,5.50
2019-04-09T01:24:07.897Z,5.50
2019-04-09T01:26:42.746Z,5.60
2019-04-09T01:29:16.016Z,5.60
2019-04-09T01:31:46.271Z,5.60
2019-04-09T01:34:25.923Z,5.70
2019-04-09T01:37:14.844Z,5.60
2019-04-09T01:39:46.278Z,5.60
2019-04-09T01:42:31.236Z,5.60
2019-04-09T01:45:02.886Z,5.20
2019-04-09T01:47:49.169Z,5.40
2019-04-09T01:50:34.762Z,5.30
2019-04-09T01:53:05.263Z,5.00
2019-04-09T01:55:35.713Z,5.20
2019-04-09T01:58:19.093Z,5.40
2019-04-09T02:00:55.142Z,5.60
2019-04-09T02:03:34.175Z,5.60
2019-04-09T02:06:10.265Z,5.40
2019-04-09T02:08:57.293Z,5.20
2019-04-09T02:11:40.394Z,5.50
2019-04-09T02:14:19.669Z,5.20
2019-04-09T02:16:49.734Z,5.00
2019-04-09T02:19:35.929Z,5.20
2019-04-09T02:22:24.727Z,5.20
2019-04-09T02:25:10.999Z,5.00
2019-04-09T02:27:57.609Z,5.20
2019-04-09T02:30:33.694Z,5.30
2019-04-09T02:33:05.168Z,5.30
2019-04-09T02:35:37.145Z,5.40
2019-04-09T02:38:23.687Z,5.40
2019-04-09T02:41:00.585Z,5.30
2019-04-09T02:43:37.118Z,5.30
2019-04-09T02:46:22.450Z,5.30
2019-04-09T02:48:56.565Z,5.20
2019-04-09T02:51:45.230Z,5.40
2019-04-09T02:54:16.396Z,5.40
2019-04-09T02:57:01.670Z,5.50
2019-04-09T02:59:34.935Z,5.40
2019-04-09T03:02:14.261Z,5.30
2019-04-09T03:04:47.220Z,5.20
2019-04-09T03:07:18.374Z,5.30
2019-04-09T03:09:49.085Z,5.20
2019-04-09T03:12:25.842Z,5.20
2019-04-09T03:14:59.431Z,5.40
2019-04-09T03:17:48.498Z,5.30
2019-04-09T03:20:30.777Z,5.30
2019-04-09T03:23:00.852Z,5.20
2019-04-09T03:25:36.838Z,5.40
2019-04-09T03:28:10.898Z,5.50
2019-04-09T03:30:55.236Z,5.60
2019-04-09T03:33:27.206Z,5.40
2019-04-09T03:36:03.218Z,5.10
2019-04-09T03:38:48.875Z,5.10
2019-04-09T03:41:22.806Z,4.90
2019-04-09T03:43:58.694Z,5.00
2019-04-09T03:46:32.190Z,5.00
2019-04-09T03:49:17.697Z,5.10
2019-04-09T03:52:02.759Z,5.40
2019-04-09T03:54:32.991Z,5.40
2019-04-09T03:57:19.761Z,5.30
2019-04-09T03:59:49.852Z,5.30
2019-04-09T04:02:29.147Z,5.20
2019-04-09T04:05:14.577Z,5.20
2019-04-09T04:07:50.545Z,5.00
2019-04-09T04:10:36.835Z,5.00
2019-04-09T04:13:08.459Z,4.90
2019-04-09T04:15:44.384Z,5.00
2019-04-09T04:18:31.732Z,5.00
2019-04-09T04:21:20.118Z,4.90
2019-04-09T04:24:06.924Z,5.00
2019-04-09T04:26:38.041Z,4.90
2019-04-09T04:29:26.433Z,4.80
2019-04-09T04:32:00.439Z,4.70
2019-04-09T04:34:45.587Z,4.80
2019-04-09T04:37:22.486Z,4.80
2019-04-09T04:39:53.269Z,4.80
2019-04-09T04:42:27.674Z,4.90
2019-04-09T04:45:07.363Z,4.90
2019-04-09T04:47:46.437Z,5.00
2019-04-09T04:50:19.448Z,4.60
2019-04-09T04:52:50.302Z,4.60
2019-04-09T04:55:44.113Z,4.70
2019-04-09T04:58:20.181Z,4.70
2019-04-09T05:00:50.329Z,4.70
2019-04-09T05:03:38.442Z,4.80
2019-04-09T05:06:27.520Z,4.90
2019-04-09T05:08:57.888Z,4.70
2019-04-09T05:11:30.893Z,4.70
2019-04-09T05:14:09.982Z,4.70
2019-04-09T05:16:56.436Z,4.80
2019-04-09T05:19:26.549Z,5.00
2019-04-09T05:22:13.045Z,4.70
2019-04-09T05:24:46.942Z,4.70
2019-04-09T05:27:17.199Z,4.70
2019-04-09T05:29:54.066Z,4.70
2019-04-09T05:32:43.628Z,4.70
2019-04-09T05:35:29.357Z,4.60
2019-04-09T05:38:03.079Z,4.70
2019-04-09T05:40:39.402Z,5.90
2019-04-09T05:43:21.791Z,6.70
2019-04-09T05:45:52.065Z,6.90
2019-04-09T05:48:23.674Z,6.70
2019-04-09T05:50:56.797Z,7.00
2019-04-09T05:53:26.862Z,7.30
2019-04-09T05:56:12.281Z,7.20
2019-04-09T05:59:04.516Z,6.40
2019-04-09T06:01:40.761Z,6.00
2019-04-09T06:04:14.037Z,5.90
2019-04-09T06:06:51.130Z,5.80
2019-04-09T06:09:21.196Z,5.50
2019-04-09T06:11:49.882Z,5.40
2019-04-09T06:14:18.990Z,5.50
2019-04-09T06:16:48.639Z,5.50
2019-04-09T06:19:17.085Z,5.60
2019-04-09T06:21:45.548Z,5.60
2019-04-09T06:24:14.424Z,5.40
2019-04-09T06:26:43.038Z,5.30
2019-04-09T06:29:16.089Z,5.40
2019-04-09T06:31:42.399Z,5.50
2019-04-09T06:34:19.291Z,5.40
2019-04-09T06:37:06.262Z,5.40
2019-04-09T06:39:46.054Z,5.70
2019-04-09T06:42:17.075Z,5.60
2019-04-09T06:44:56.168Z,5.70
2019-04-09T06:47:42.519Z,5.60
2019-04-09T06:50:13.240Z,5.50
2019-04-09T06:52:49.018Z,5.60
2019-04-09T06:55:34.722Z,5.80
2019-04-09T06:58:21.287Z,5.90
2019-04-09T07:01:06.685Z,6.00
2019-04-09T07:03:54.651Z,5.80
2019-04-09T07:06:28.381Z,5.90
2019-04-09T07:09:15.760Z,5.90
2019-04-09T07:11:48.946Z,5.90
2019-04-09T07:14:35.250Z,6.10
2019-04-09T07:17:11.313Z,6.10
2019-04-09T07:19:45.232Z,6.30
2019-04-09T07:22:31.835Z,6.50
2019-04-09T07:25:17.540Z,6.80
2019-04-09T07:27:50.722Z,6.90
2019-04-09T07:30:40.663Z,7.20
2019-04-09T07:33:17.230Z,7.20
2019-04-09T07:36:03.031Z,7.20
2019-04-09T07:38:41.834Z,7.10
2019-04-09T07:41:28.146Z,7.00
2019-04-09T07:44:10.296Z,7.10
2019-04-09T07:46:56.858Z,7.20
2019-04-09T07:49:32.995Z,7.50
2019-04-09T07:52:01.673Z,7.50
2019-04-09T07:54:51.452Z,7.30
2019-04-09T07:57:28.227Z,7.50
2019-04-09T08:00:06.304Z,7.70
2019-04-09T08:02:30.536Z,7.90
2019-04-09T08:05:12.885Z,8.10
2019-04-09T08:07:59.626Z,8.00
2019-04-09T08:10:30.404Z,8.00
2019-04-09T08:13:01.363Z,8.10
2019-04-09T08:15:38.320Z,8.30
2019-04-09T08:18:20.630Z,8.10
2019-04-09T08:21:01.110Z,7.90
2019-04-09T08:23:37.425Z,7.90
2019-04-09T08:26:10.689Z,7.90
2019-04-09T08:28:43.898Z,7.90
2019-04-09T08:31:32.385Z,8.10
2019-04-09T08:34:06.285Z,8.40
2019-04-09T08:36:55.664Z,8.50
2019-04-09T08:39:24.561Z,8.70
2019-04-09T08:42:00.553Z,8.40
2019-04-09T08:44:31.053Z,8.50
2019-04-09T08:47:21.128Z,8.40
2019-04-09T08:49:56.969Z,8.10
2019-04-09T08:52:42.700Z,8.30
2019-04-09T08:55:13.620Z,8.40
2019-04-09T08:57:56.569Z,8.20
2019-04-09T09:01:08.250Z,8.20
2019-04-09T09:03:04.678Z,8.20
2019-04-09T09:05:59.700Z,8.40
2019-04-09T09:08:41.678Z,8.50
2019-04-09T09:11:25.261Z,8.70
2019-04-09T09:13:52.769Z,8.40
2019-04-09T09:16:30.136Z,8.40
2019-04-09T09:19:14.205Z,8.50
2019-04-09T09:22:03.542Z,8.50
2019-04-09T09:24:38.138Z,8.50
2019-04-09T09:27:13.621Z,8.70
2019-04-09T09:29:42.648Z,8.60
2019-04-09T09:32:13.298Z,8.20
2019-04-09T09:35:02.753Z,9.00
2019-04-09T09:37:34.794Z,9.20
2019-04-09T09:40:08.236Z,9.40
2019-04-09T09:42:55.038Z,9.50
2019-04-09T09:45:29.936Z,9.70
2019-04-09T09:48:02.733Z,9.80
2019-04-09T09:50:38.867Z,9.50
2019-04-09T09:53:26.614Z,9.50
2019-04-09T09:55:59.386Z,9.60
2019-04-09T09:58:35.973Z,9.20
2019-04-09T10:01:22.167Z,9.10
2019-04-09T10:03:54.592Z,9.10
2019-04-09T10:06:45.451Z,9.30
2019-04-09T10:09:31.731Z,9.30
2019-04-09T10:12:10.104Z,9.10
2019-04-09T10:14:48.897Z,9.10
2019-04-09T10:17:28.174Z,9.00
2019-04-09T10:20:06.594Z,9.30
2019-04-09T10:22:39.418Z,9.50
2019-04-09T10:25:09.855Z,9.70
2019-04-09T10:27:45.948Z,9.30
2019-04-09T10:30:18.406Z,9.10
2019-04-09T10:32:58.626Z,9.10
2019-04-09T10:35:38.359Z,9.00
2019-04-09T10:38:12.847Z,9.40
2019-04-09T10:40:43.250Z,9.70
2019-04-09T10:43:14.303Z,9.50
2019-04-09T10:45:54.446Z,9.80
2019-04-09T10:48:34.978Z,10.00
2019-04-09T10:51:10.252Z,10.20
2019-04-09T10:53:39.677Z,10.40
2019-04-09T10:56:27.193Z,10.50
2019-04-09T10:59:15.448Z,10.40
2019-04-09T11:01:58.687Z,10.20
2019-04-09T11:04:35.793Z,10.00
2019-04-09T11:07:15.105Z,9.90
2019-04-09T11:10:02.330Z,9.60
2019-04-09T11:12:39.297Z,9.30
2019-04-09T11:15:25.201Z,9.30
2019-04-09T11:18:10.660Z,9.20
2019-04-09T11:20:54.421Z,9.30
2019-04-09T11:23:27.433Z,9.30
2019-04-09T11:26:10.845Z,9.40
2019-04-09T11:28:38.789Z,9.50
2019-04-09T11:31:09.449Z,9.60
2019-04-09T11:33:45.273Z,9.70
2019-04-09T11:36:19.006Z,9.80
2019-04-09T11:38:49.980Z,9.90
2019-04-09T11:41:20.978Z,9.60
2019-04-09T11:43:56.912Z,9.50
2019-04-09T11:46:44.330Z,9.50
2019-04-09T11:49:18.370Z,9.60
2019-04-09T11:52:05.851Z,9.60
2019-04-09T11:54:52.485Z,9.70
2019-04-09T11:57:28.670Z,10.10
2019-04-09T12:00:15.471Z,10.00
2019-04-09T12:02:48.830Z,10.00
2019-04-09T12:05:37.510Z,9.90
2019-04-09T12:08:14.727Z,9.80
2019-04-09T12:10:54.009Z,10.10
2019-04-09T12:13:27.013Z,10.10
2019-04-09T12:16:02.838Z,9.60
2019-04-09T12:18:33.648Z,9.50
2019-04-09T12:21:04.791Z,9.30
2019-04-09T12:23:51.300Z,9.30
2019-04-09T12:26:22.215Z,9.40
2019-04-09T12:29:06.949Z,9.60
2019-04-09T12:31:46.082Z,9.60
2019-04-09T12:34:19.081Z,9.40
2019-04-09T12:36:51.808Z,9.50
2019-04-09T12:39:22.030Z,9.50
2019-04-09T12:41:53.072Z,9.60
2019-04-09T12:44:24.034Z,9.80
2019-04-09T12:46:57.926Z,10.10
2019-04-09T12:49:29.552Z,10.30
2019-04-09T12:52:17.506Z,10.00
2019-04-09T12:54:49.631Z,10.00
2019-04-09T12:57:19.879Z,10.20
2019-04-09T13:00:08.217Z,10.10
2019-04-09T13:02:56.507Z,10.20
2019-04-09T13:05:35.869Z,10.20
2019-04-09T13:08:13.704Z,9.90
2019-04-09T13:10:50.193Z,9.90
2019-04-09T13:13:20.463Z,9.90
2019-04-09T13:15:59.492Z,10.40
2019-04-09T13:18:45.879Z,10.40
2019-04-09T13:21:16.985Z,10.30
2019-04-09T13:23:47.224Z,10.10
2019-04-09T13:26:30.070Z,10.10
2019-04-09T13:29:12.512Z,10.10
2019-04-09T13:31:44.777Z,10.00
2019-04-09T13:34:21.540Z,10.00
2019-04-09T13:36:57.976Z,10.00
2019-04-09T13:39:37.828Z,9.90
2019-04-09T13:42:08.870Z,10.20
2019-04-09T13:44:55.737Z,10.30
2019-04-09T13:47:29.850Z,10.50
2019-04-09T13:50:02.674Z,10.80
2019-04-09T13:52:40.547Z,10.60
2019-04-09T13:55:10.536Z,10.30
2019-04-09T13:57:40.205Z,10.10
2019-04-09T14:00:12.665Z,10.00
2019-04-09T14:02:51.659Z,9.80
2019-04-09T14:05:16.132Z,9.90
2019-04-09T14:07:44.556Z,10.20
2019-04-09T14:10:14.370Z,10.50
2019-04-09T14:12:43.401Z,10.80
2019-04-09T14:15:12.888Z,10.40
2019-04-09T14:17:43.035Z,10.70
2019-04-09T14:20:12.100Z,10.50
2019-04-09T14:22:42.222Z,10.50
2019-04-09T14:25:11.785Z,10.50
2019-04-09T14:27:41.082Z,10.40
2019-04-09T14:30:12.037Z,10.20
2019-04-09T14:32:40.815Z,10.40
2019-04-09T14:35:09.728Z,11.00
2019-04-09T14:37:39.540Z,11.20
2019-04-09T14:40:09.810Z,11.00
2019-04-09T14:42:38.958Z,10.60
2019-04-09T14:45:09.162Z,10.40
2019-04-09T14:47:37.836Z,10.00
2019-04-09T14:50:09.385Z,10.20
2019-04-09T14:52:49.875Z,10.50
2019-04-09T14:55:09.084Z,10.80
2019-04-09T14:57:37.514Z,11.00
2019-04-09T15:00:12.179Z,10.90
2019-04-09T15:02:40.780Z,10.90
2019-04-09T15:05:09.862Z,11.20
2019-04-09T15:07:39.563Z,11.50
2019-04-09T15:10:09.188Z,11.60
2019-04-09T15:12:38.033Z,11.40
2019-04-09T15:15:09.488Z,11.50
2019-04-09T15:17:37.945Z,11.30
2019-04-09T15:20:08.132Z,11.50
2019-04-09T15:22:37.061Z,11.50
2019-04-09T15:25:09.305Z,11.40
2019-04-09T15:27:38.220Z,11.00
2019-04-09T15:30:12.989Z,10.40
2019-04-09T15:32:42.055Z,10.00
2019-04-09T15:35:12.032Z,10.10
2019-04-09T15:37:43.989Z,10.20
2019-04-09T15:40:17.352Z,10.20
2019-04-09T15:42:49.211Z,10.10
2019-04-09T15:45:17.670Z,10.10
2019-04-09T15:47:46.110Z,10.00
2019-04-09T15:50:14.544Z,10.30
2019-04-09T15:52:42.976Z,10.90
2019-04-09T15:55:13.025Z,11.60
2019-04-09T15:57:41.832Z,11.80
2019-04-09T16:00:10.596Z,12.00
2019-04-09T16:02:39.042Z,12.60
2019-04-09T16:05:08.596Z,13.40
2019-04-09T16:07:38.258Z,13.90
2019-04-09T16:10:08.117Z,13.10
2019-04-09T16:12:37.011Z,12.40
2019-04-09T16:15:08.747Z,12.90
2019-04-09T16:17:37.203Z,12.30
2019-04-09T16:20:06.166Z,11.50
2019-04-09T16:22:34.599Z,10.80
2019-04-09T16:25:03.161Z,10.00
2019-04-09T16:27:32.530Z,9.60
2019-04-09T16:30:01.776Z,9.70
2019-04-09T16:32:31.355Z,9.80
2019-04-09T16:35:00.935Z,9.70
2019-04-09T16:37:30.347Z,9.60
2019-04-09T16:39:58.995Z,9.60
2019-04-09T16:42:36.637Z,9.40
2019-04-09T16:45:04.400Z,9.40
2019-04-09T16:47:28.756Z,9.30
2019-04-09T16:50:09.297Z,9.30
2019-04-09T16:52:37.728Z,9.30
2019-04-09T16:55:08.459Z,9.10
2019-04-09T16:57:37.358Z,9.10
2019-04-09T17:00:11.597Z,9.00
2019-04-09T17:02:40.660Z,9.10
2019-04-09T17:05:09.726Z,9.20
2019-04-09T17:07:38.406Z,9.00
2019-04-09T17:10:07.991Z,8.90
2019-04-09T17:12:36.485Z,8.90
2019-04-09T17:15:07.144Z,9.00
2019-04-09T17:17:36.000Z,8.90
2019-04-09T17:20:08.002Z,8.90
2019-04-09T17:22:36.714Z,8.80
2019-04-09T17:25:06.043Z,8.60
2019-04-09T17:27:34.460Z,8.70
2019-04-09T17:30:03.835Z,8.60
2019-04-09T17:32:34.201Z,8.70
2019-04-09T17:35:03.270Z,8.70
2019-04-09T17:37:31.795Z,8.60
2019-04-09T17:40:07.152Z,8.60
2019-04-09T17:42:32.149Z,8.30
2019-04-09T17:45:13.839Z,8.30
2019-04-09T17:47:42.300Z,8.30
2019-04-09T17:50:11.616Z,8.30
2019-04-09T17:52:41.543Z,8.20
2019-04-09T17:55:11.536Z,8.40
2019-04-09T17:57:40.414Z,8.30
2019-04-09T18:00:15.381Z,8.10
2019-04-09T18:02:44.696Z,8.20
2019-04-09T18:05:14.691Z,8.20
2019-04-09T18:07:44.543Z,8.00
2019-04-09T18:10:13.908Z,7.80
2019-04-09T18:12:43.113Z,7.80
2019-04-09T18:15:13.542Z,7.80
2019-04-09T18:17:42.094Z,7.70
2019-04-09T18:20:11.944Z,7.70
2019-04-09T18:22:40.777Z,7.50
2019-04-09T18:25:09.546Z,7.40
2019-04-09T18:27:38.094Z,7.40
2019-04-09T18:30:09.592Z,7.40
2019-04-09T18:32:39.351Z,7.40
2019-04-09T18:35:28.060Z,7.50
2019-04-09T18:37:56.871Z,7.50
2019-04-09T18:40:25.297Z,7.30
2019-04-09T18:42:53.730Z,7.50
2019-04-09T18:45:22.145Z,7.50
2019-04-09T18:47:50.824Z,7.30
2019-04-09T18:50:20.458Z,7.10
2019-04-09T18:52:48.895Z,7.00
2019-04-09T18:55:18.147Z,6.90
2019-04-09T18:57:46.737Z,7.00
2019-04-09T19:00:16.060Z,6.90
2019-04-09T19:02:45.213Z,6.80
2019-04-09T19:05:16.558Z,7.00
2019-04-09T19:07:44.618Z,7.00
2019-04-09T19:10:14.656Z,7.10
2019-04-09T19:12:43.394Z,6.70
2019-04-09T19:15:12.698Z,6.50
2019-04-09T19:17:41.433Z,6.40
2019-04-09T19:20:09.916Z,6.30
2019-04-09T19:22:38.406Z,6.40
2019-04-09T19:25:06.821Z,6.30
2019-04-09T19:27:35.889Z,6.30
2019-04-09T19:30:07.071Z,6.40
2019-04-09T19:32:35.677Z,6.20
2019-04-09T19:35:17.599Z,6.20
2019-04-09T19:37:36.593Z,6.10
2019-04-09T19:40:20.312Z,6.10
2019-04-09T19:42:50.125Z,6.10
2019-04-09T19:45:21.033Z,5.70
2019-04-09T19:47:49.489Z,5.80
2019-04-09T19:50:18.142Z,5.80
2019-04-09T19:52:47.283Z,5.80
2019-04-09T19:55:16.340Z,5.90
2019-04-09T19:57:44.773Z,5.80
2019-04-09T20:00:15.317Z,6.40
2019-04-09T20:02:43.746Z,6.60
2019-04-09T20:05:25.769Z,6.80
2019-04-09T20:07:43.152Z,6.80
2019-04-09T20:10:13.417Z,7.10
2019-04-09T20:12:41.909Z,7.00
2019-04-09T20:15:12.236Z,7.30
2019-04-09T20:17:40.873Z,7.00
2019-04-09T20:20:11.304Z,6.90
2019-04-09T20:22:41.491Z,7.00
2019-04-09T20:25:11.193Z,6.30
2019-04-09T20:27:41.285Z,6.20
2019-04-09T20:30:10.121Z,5.80
2019-04-09T20:32:38.904Z,5.60
2019-04-09T20:35:38.830Z,5.50
2019-04-09T20:40:21.654Z,5.30
2019-04-09T20:42:50.835Z,5.30
2019-04-09T20:45:19.477Z,5.20
2019-04-09T20:47:48.372Z,5.30
2019-04-09T20:50:17.906Z,5.20
2019-04-09T20:52:48.225Z,5.30
2019-04-09T20:55:18.441Z,5.30
2019-04-09T20:57:48.548Z,5.20
2019-04-09T21:00:28.134Z,5.30
2019-04-09T21:05:28.242Z,4.60
2019-04-09T21:07:56.958Z,4.50
2019-04-09T21:10:25.387Z,4.50
2019-04-09T21:12:54.551Z,4.70
2019-04-09T21:15:24.027Z,5.00
2019-04-09T21:17:52.569Z,5.10
2019-04-09T21:20:21.013Z,5.10
2019-04-09T21:22:49.440Z,5.20
2019-04-09T21:25:18.328Z,4.90
2019-04-09T21:27:47.680Z,4.80
2019-04-09T21:30:16.722Z,4.80
2019-04-09T21:32:45.195Z,4.60
2019-04-09T21:35:13.622Z,4.70
2019-04-09T21:37:42.186Z,4.70
2019-04-09T21:40:11.933Z,4.30
2019-04-09T21:42:40.731Z,4.40
2019-04-09T21:45:09.701Z,4.50
2019-04-09T21:47:38.601Z,4.60
2019-04-09T21:50:08.738Z,4.80
2019-04-09T21:52:37.273Z,4.70
2019-04-09T21:55:06.937Z,4.80
2019-04-09T21:57:35.743Z,4.70
2019-04-09T22:00:26.674Z,4.70
2019-04-09T22:02:55.389Z,4.60
2019-04-09T22:05:23.851Z,4.60
2019-04-09T22:07:52.429Z,4.70
2019-04-09T22:10:21.112Z,4.80
2019-04-09T22:12:49.776Z,4.50
2019-04-09T22:15:18.703Z,4.40
2019-04-09T22:17:47.889Z,4.40
2019-04-09T22:20:17.161Z,4.50
2019-04-09T22:22:45.793Z,4.20
2019-04-09T22:25:14.428Z,4.00
2019-04-09T22:27:43.694Z,4.10
2019-04-09T22:30:14.023Z,3.80
2019-04-09T22:32:42.690Z,4.00
2019-04-09T22:35:11.110Z,4.30
2019-04-09T22:37:39.545Z,4.30
2019-04-09T22:40:08.618Z,4.30
2019-04-09T22:42:38.024Z,4.20
2019-04-09T22:45:07.312Z,4.10
2019-04-09T22:47:35.963Z,3.70
2019-04-09T22:50:06.520Z,4.00
2019-04-09T22:52:36.119Z,3.90
2019-04-09T22:55:07.697Z,4.10
2019-04-09T22:57:36.219Z,3.90
2019-04-09T23:00:08.422Z,4.00
2019-04-09T23:02:47.281Z,3.90
2019-04-09T23:05:20.559Z,3.80
2019-04-09T23:07:50.806Z,3.80
2019-04-09T23:10:37.057Z,3.80
2019-04-09T23:13:06.064Z,3.90
2019-04-09T23:15:37.229Z,3.90
2019-04-09T23:18:05.978Z,3.90
2019-04-09T23:20:34.751Z,3.70
2019-04-09T23:23:03.408Z,3.70
2019-04-09T23:25:32.884Z,3.80
2019-04-09T23:28:01.616Z,3.90
2019-04-09T23:30:30.156Z,4.00
2019-04-09T23:32:58.737Z,3.70
2019-04-09T23:35:27.433Z,3.80
2019-04-09T23:37:56.544Z,3.80
2019-04-09T23:40:25.076Z,3.80
2019-04-09T23:42:53.507Z,3.80
2019-04-09T23:45:22.120Z,3.70
2019-04-09T23:47:53.378Z,3.70
2019-04-09T23:50:21.517Z,3.90
2019-04-09T23:52:49.985Z,3.80
2019-04-09T23:55:18.674Z,3.80
2019-04-09T23:57:47.403Z,3.90
